sensor_id;sensor_type;location;lat;lon;timestamp;temperature;humidity
64888;DHT22;51386;53.082;8.816;2023-07-20T00:00:15;19.80;74.90
64888;DHT22;51386;53.082;8.816;2023-07-20T00:02:42;19.80;74.90
64888;DHT22;51386;53.082;8.816;2023-07-20T00:05:09;19.80;75.10
64888;DHT22;51386;53.082;8.816;2023-07-20T00:07:36;19.70;75.10
64888;DHT22;51386;53.082;8.816;2023-07-20T00:10:06;19.80;75.30
64888;DHT22;51386;53.082;8.816;2023-07-20T00:12:33;19.80;75.30
64888;DHT22;51386;53.082;8.816;2023-07-20T00:15:01;19.80;75.10
64888;DHT22;51386;53.082;8.816;2023-07-20T00:17:28;19.80;75.10
64888;DHT22;51386;53.082;8.816;2023-07-20T00:19:55;19.80;75.10
64888;DHT22;51386;53.082;8.816;2023-07-20T00:22:22;19.70;75.00
64888;DHT22;51386;53.082;8.816;2023-07-20T00:24:49;19.70;75.20
64888;DHT22;51386;53.082;8.816;2023-07-20T00:27:17;19.70;75.40
64888;DHT22;51386;53.082;8.816;2023-07-20T00:29:44;19.80;75.40
64888;DHT22;51386;53.082;8.816;2023-07-20T00:32:11;19.80;75.20
64888;DHT22;51386;53.082;8.816;2023-07-20T00:34:38;19.80;75.30
64888;DHT22;51386;53.082;8.816;2023-07-20T00:37:05;19.80;75.00
64888;DHT22;51386;53.082;8.816;2023-07-20T00:39:33;19.80;75.00
64888;DHT22;51386;53.082;8.816;2023-07-20T00:42:00;19.80;74.70
64888;DHT22;51386;53.082;8.816;2023-07-20T00:44:28;19.80;74.80
64888;DHT22;51386;53.082;8.816;2023-07-20T00:46:55;19.80;74.80
64888;DHT22;51386;53.082;8.816;2023-07-20T00:49:23;19.80;74.70
64888;DHT22;51386;53.082;8.816;2023-07-20T00:51:50;19.80;74.70
64888;DHT22;51386;53.082;8.816;2023-07-20T00:54:18;19.80;75.20
64888;DHT22;51386;53.082;8.816;2023-07-20T00:56:45;19.70;75.70
64888;DHT22;51386;53.082;8.816;2023-07-20T00:59:13;19.70;76.10
64888;DHT22;51386;53.082;8.816;2023-07-20T01:01:42;19.60;76.80
64888;DHT22;51386;53.082;8.816;2023-07-20T01:04:09;19.60;77.80
64888;DHT22;51386;53.082;8.816;2023-07-20T01:06:48;19.50;78.70
64888;DHT22;51386;53.082;8.816;2023-07-20T01:09:28;19.50;79.30
64888;DHT22;51386;53.082;8.816;2023-07-20T01:12:06;19.40;79.60
64888;DHT22;51386;53.082;8.816;2023-07-20T01:14:37;19.40;80.30
64888;DHT22;51386;53.082;8.816;2023-07-20T01:17:05;19.30;80.80
64888;DHT22;51386;53.082;8.816;2023-07-20T01:19:32;19.20;81.70
64888;DHT22;51386;53.082;8.816;2023-07-20T01:22:03;19.20;81.60
64888;DHT22;51386;53.082;8.816;2023-07-20T01:25:00;19.20;81.90
64888;DHT22;51386;53.082;8.816;2023-07-20T01:28:10;19.20;81.70
64888;DHT22;51386;53.082;8.816;2023-07-20T01:31:15;19.20;81.70
64888;DHT22;51386;53.082;8.816;2023-07-20T01:33:46;19.10;82.30
64888;DHT22;51386;53.082;8.816;2023-07-20T01:36:16;19.10;82.00
64888;DHT22;51386;53.082;8.816;2023-07-20T01:38:45;19.00;82.00
64888;DHT22;51386;53.082;8.816;2023-07-20T01:41:13;19.00;82.30
64888;DHT22;51386;53.082;8.816;2023-07-20T01:43:42;19.00;83.30
64888;DHT22;51386;53.082;8.816;2023-07-20T01:46:09;19.00;83.40
64888;DHT22;51386;53.082;8.816;2023-07-20T01:48:38;19.00;83.70
64888;DHT22;51386;53.082;8.816;2023-07-20T01:51:05;19.00;83.80
64888;DHT22;51386;53.082;8.816;2023-07-20T01:53:32;19.00;84.00
64888;DHT22;51386;53.082;8.816;2023-07-20T01:55:59;19.00;83.90
64888;DHT22;51386;53.082;8.816;2023-07-20T01:58:26;19.00;83.70
64888;DHT22;51386;53.082;8.816;2023-07-20T02:00:53;19.00;83.80
64888;DHT22;51386;53.082;8.816;2023-07-20T02:03:20;19.00;83.80
64888;DHT22;51386;53.082;8.816;2023-07-20T02:05:50;19.00;83.70
64888;DHT22;51386;53.082;8.816;2023-07-20T02:08:17;18.90;83.90
64888;DHT22;51386;53.082;8.816;2023-07-20T02:10:45;18.80;84.10
64888;DHT22;51386;53.082;8.816;2023-07-20T02:13:13;18.80;84.60
64888;DHT22;51386;53.082;8.816;2023-07-20T02:15:41;18.80;85.10
64888;DHT22;51386;53.082;8.816;2023-07-20T02:18:09;18.80;85.40
64888;DHT22;51386;53.082;8.816;2023-07-20T02:20:36;18.80;85.60
64888;DHT22;51386;53.082;8.816;2023-07-20T02:23:04;18.70;85.70
64888;DHT22;51386;53.082;8.816;2023-07-20T02:25:31;18.80;86.20
64888;DHT22;51386;53.082;8.816;2023-07-20T02:27:58;18.70;85.90
64888;DHT22;51386;53.082;8.816;2023-07-20T02:30:25;18.70;85.50
64888;DHT22;51386;53.082;8.816;2023-07-20T02:32:53;18.60;84.10
64888;DHT22;51386;53.082;8.816;2023-07-20T02:35:20;18.60;83.40
64888;DHT22;51386;53.082;8.816;2023-07-20T02:37:47;18.60;83.20
64888;DHT22;51386;53.082;8.816;2023-07-20T02:40:16;18.50;82.70
64888;DHT22;51386;53.082;8.816;2023-07-20T02:42:43;18.50;82.80
64888;DHT22;51386;53.082;8.816;2023-07-20T02:45:10;18.50;83.40
64888;DHT22;51386;53.082;8.816;2023-07-20T02:47:37;18.50;83.90
64888;DHT22;51386;53.082;8.816;2023-07-20T02:50:07;18.60;84.00
64888;DHT22;51386;53.082;8.816;2023-07-20T02:52:35;18.60;83.70
64888;DHT22;51386;53.082;8.816;2023-07-20T02:55:02;18.70;83.70
64888;DHT22;51386;53.082;8.816;2023-07-20T02:57:30;18.70;83.50
64888;DHT22;51386;53.082;8.816;2023-07-20T02:59:57;18.70;84.00
64888;DHT22;51386;53.082;8.816;2023-07-20T03:02:24;18.70;84.50
64888;DHT22;51386;53.082;8.816;2023-07-20T03:04:52;18.70;85.00
64888;DHT22;51386;53.082;8.816;2023-07-20T03:07:19;18.80;85.10
64888;DHT22;51386;53.082;8.816;2023-07-20T03:09:47;18.80;85.00
64888;DHT22;51386;53.082;8.816;2023-07-20T03:12:14;18.80;84.90
64888;DHT22;51386;53.082;8.816;2023-07-20T03:14:43;18.80;84.90
64888;DHT22;51386;53.082;8.816;2023-07-20T03:17:10;18.70;84.90
64888;DHT22;51386;53.082;8.816;2023-07-20T03:19:37;18.70;85.40
64888;DHT22;51386;53.082;8.816;2023-07-20T03:22:04;18.70;85.20
64888;DHT22;51386;53.082;8.816;2023-07-20T03:24:31;18.70;85.40
64888;DHT22;51386;53.082;8.816;2023-07-20T03:26:58;18.70;85.50
64888;DHT22;51386;53.082;8.816;2023-07-20T03:29:26;18.70;85.90
64888;DHT22;51386;53.082;8.816;2023-07-20T03:31:54;18.70;85.70
64888;DHT22;51386;53.082;8.816;2023-07-20T03:34:21;18.70;85.80
64888;DHT22;51386;53.082;8.816;2023-07-20T03:36:48;18.80;85.80
64888;DHT22;51386;53.082;8.816;2023-07-20T03:39:15;18.70;86.30
64888;DHT22;51386;53.082;8.816;2023-07-20T03:41:42;18.80;86.20
64888;DHT22;51386;53.082;8.816;2023-07-20T03:44:09;18.80;86.00
64888;DHT22;51386;53.082;8.816;2023-07-20T03:46:36;18.80;85.80
64888;DHT22;51386;53.082;8.816;2023-07-20T03:49:05;18.80;85.90
64888;DHT22;51386;53.082;8.816;2023-07-20T03:51:33;18.70;85.90
64888;DHT22;51386;53.082;8.816;2023-07-20T03:54:00;18.70;86.10
64888;DHT22;51386;53.082;8.816;2023-07-20T03:56:27;18.70;86.10
64888;DHT22;51386;53.082;8.816;2023-07-20T03:58:54;18.70;86.40
64888;DHT22;51386;53.082;8.816;2023-07-20T04:01:21;18.70;86.20
64888;DHT22;51386;53.082;8.816;2023-07-20T04:03:48;18.70;85.80
64888;DHT22;51386;53.082;8.816;2023-07-20T04:06:17;18.70;85.80
64888;DHT22;51386;53.082;8.816;2023-07-20T04:08:44;18.70;86.10
64888;DHT22;51386;53.082;8.816;2023-07-20T04:11:13;18.70;86.40
64888;DHT22;51386;53.082;8.816;2023-07-20T04:13:40;18.70;86.50
64888;DHT22;51386;53.082;8.816;2023-07-20T04:16:07;18.70;86.30
64888;DHT22;51386;53.082;8.816;2023-07-20T04:18:34;18.80;86.50
64888;DHT22;51386;53.082;8.816;2023-07-20T04:21:01;18.80;86.20
64888;DHT22;51386;53.082;8.816;2023-07-20T04:23:30;18.80;86.40
64888;DHT22;51386;53.082;8.816;2023-07-20T04:25:57;18.90;86.20
64888;DHT22;51386;53.082;8.816;2023-07-20T04:28:24;18.90;86.10
64888;DHT22;51386;53.082;8.816;2023-07-20T04:30:52;18.90;85.80
64888;DHT22;51386;53.082;8.816;2023-07-20T04:33:19;18.90;85.90
64888;DHT22;51386;53.082;8.816;2023-07-20T04:35:50;18.90;85.70
64888;DHT22;51386;53.082;8.816;2023-07-20T04:38:18;18.90;85.60
64888;DHT22;51386;53.082;8.816;2023-07-20T04:40:48;18.90;86.10
64888;DHT22;51386;53.082;8.816;2023-07-20T04:43:17;18.90;86.00
64888;DHT22;51386;53.082;8.816;2023-07-20T04:45:44;18.80;85.90
64888;DHT22;51386;53.082;8.816;2023-07-20T04:48:14;18.80;85.80
64888;DHT22;51386;53.082;8.816;2023-07-20T04:50:44;18.80;85.70
64888;DHT22;51386;53.082;8.816;2023-07-20T04:53:13;18.80;85.80
64888;DHT22;51386;53.082;8.816;2023-07-20T04:55:40;18.80;86.00
64888;DHT22;51386;53.082;8.816;2023-07-20T04:58:15;18.80;86.00
64888;DHT22;51386;53.082;8.816;2023-07-20T05:00:42;18.80;85.70
64888;DHT22;51386;53.082;8.816;2023-07-20T05:03:09;18.80;85.50
64888;DHT22;51386;53.082;8.816;2023-07-20T05:05:36;18.80;85.20
64888;DHT22;51386;53.082;8.816;2023-07-20T05:08:04;18.80;85.20
64888;DHT22;51386;53.082;8.816;2023-07-20T05:10:31;18.80;85.20
64888;DHT22;51386;53.082;8.816;2023-07-20T05:12:59;18.80;85.00
64888;DHT22;51386;53.082;8.816;2023-07-20T05:15:27;18.70;84.90
64888;DHT22;51386;53.082;8.816;2023-07-20T05:17:54;18.70;85.40
64888;DHT22;51386;53.082;8.816;2023-07-20T05:20:21;18.70;85.00
64888;DHT22;51386;53.082;8.816;2023-07-20T05:22:48;18.70;84.90
64888;DHT22;51386;53.082;8.816;2023-07-20T05:25:15;18.70;84.60
64888;DHT22;51386;53.082;8.816;2023-07-20T05:27:45;18.70;84.60
64888;DHT22;51386;53.082;8.816;2023-07-20T05:30:13;18.70;84.60
64888;DHT22;51386;53.082;8.816;2023-07-20T05:32:41;18.60;84.60
64888;DHT22;51386;53.082;8.816;2023-07-20T05:35:09;18.60;84.60
64888;DHT22;51386;53.082;8.816;2023-07-20T05:37:38;18.60;84.70
64888;DHT22;51386;53.082;8.816;2023-07-20T05:40:06;18.60;84.80
64888;DHT22;51386;53.082;8.816;2023-07-20T05:42:34;18.70;85.10
64888;DHT22;51386;53.082;8.816;2023-07-20T05:45:01;18.70;84.60
64888;DHT22;51386;53.082;8.816;2023-07-20T05:47:28;18.80;84.70
64888;DHT22;51386;53.082;8.816;2023-07-20T05:49:57;18.80;84.40
64888;DHT22;51386;53.082;8.816;2023-07-20T05:52:24;18.90;84.00
64888;DHT22;51386;53.082;8.816;2023-07-20T05:54:51;18.90;83.60
64888;DHT22;51386;53.082;8.816;2023-07-20T05:57:18;18.90;83.40
64888;DHT22;51386;53.082;8.816;2023-07-20T05:59:45;18.90;83.40
64888;DHT22;51386;53.082;8.816;2023-07-20T06:02:12;19.00;83.40
64888;DHT22;51386;53.082;8.816;2023-07-20T06:04:39;19.00;83.30
64888;DHT22;51386;53.082;8.816;2023-07-20T06:07:08;19.10;82.90
64888;DHT22;51386;53.082;8.816;2023-07-20T06:09:35;19.20;82.60
64888;DHT22;51386;53.082;8.816;2023-07-20T06:12:03;19.30;82.00
64888;DHT22;51386;53.082;8.816;2023-07-20T06:14:31;19.30;81.30
64888;DHT22;51386;53.082;8.816;2023-07-20T06:16:58;19.40;80.70
64888;DHT22;51386;53.082;8.816;2023-07-20T06:19:26;19.40;80.90
64888;DHT22;51386;53.082;8.816;2023-07-20T06:21:53;19.40;80.50
64888;DHT22;51386;53.082;8.816;2023-07-20T06:24:21;19.50;79.60
64888;DHT22;51386;53.082;8.816;2023-07-20T06:26:48;19.50;79.10
64888;DHT22;51386;53.082;8.816;2023-07-20T06:29:15;19.60;79.00
64888;DHT22;51386;53.082;8.816;2023-07-20T06:31:42;19.60;78.60
64888;DHT22;51386;53.082;8.816;2023-07-20T06:34:09;19.60;78.50
64888;DHT22;51386;53.082;8.816;2023-07-20T06:36:36;19.60;78.50
64888;DHT22;51386;53.082;8.816;2023-07-20T06:39:04;19.60;78.00
64888;DHT22;51386;53.082;8.816;2023-07-20T06:41:35;19.70;78.10
64888;DHT22;51386;53.082;8.816;2023-07-20T06:44:05;19.70;77.80
64888;DHT22;51386;53.082;8.816;2023-07-20T06:46:32;19.80;77.40
64888;DHT22;51386;53.082;8.816;2023-07-20T06:48:59;19.80;76.90
64888;DHT22;51386;53.082;8.816;2023-07-20T06:51:29;19.80;76.30
64888;DHT22;51386;53.082;8.816;2023-07-20T06:53:56;19.80;76.70
64888;DHT22;51386;53.082;8.816;2023-07-20T06:56:23;19.80;76.20
64888;DHT22;51386;53.082;8.816;2023-07-20T06:58:54;19.80;75.90
64888;DHT22;51386;53.082;8.816;2023-07-20T07:01:21;19.90;76.00
64888;DHT22;51386;53.082;8.816;2023-07-20T07:03:49;19.90;75.30
64888;DHT22;51386;53.082;8.816;2023-07-20T07:06:21;19.90;75.30
64888;DHT22;51386;53.082;8.816;2023-07-20T07:08:50;19.90;75.00
64888;DHT22;51386;53.082;8.816;2023-07-20T07:11:17;19.90;74.70
64888;DHT22;51386;53.082;8.816;2023-07-20T07:13:44;20.00;74.60
64888;DHT22;51386;53.082;8.816;2023-07-20T07:16:14;20.00;74.00
64888;DHT22;51386;53.082;8.816;2023-07-20T07:18:47;20.00;73.10
64888;DHT22;51386;53.082;8.816;2023-07-20T07:21:14;20.00;72.60
64888;DHT22;51386;53.082;8.816;2023-07-20T07:23:41;20.00;72.10
64888;DHT22;51386;53.082;8.816;2023-07-20T07:26:09;20.00;72.00
64888;DHT22;51386;53.082;8.816;2023-07-20T07:28:36;20.00;71.90
64888;DHT22;51386;53.082;8.816;2023-07-20T07:31:04;20.00;71.90
64888;DHT22;51386;53.082;8.816;2023-07-20T07:33:36;20.00;71.80
64888;DHT22;51386;53.082;8.816;2023-07-20T07:36:03;20.10;71.70
64888;DHT22;51386;53.082;8.816;2023-07-20T07:38:31;20.20;71.10
64888;DHT22;51386;53.082;8.816;2023-07-20T07:41:18;20.30;70.80
64888;DHT22;51386;53.082;8.816;2023-07-20T07:43:45;20.40;70.10
64888;DHT22;51386;53.082;8.816;2023-07-20T07:46:12;20.50;69.90
64888;DHT22;51386;53.082;8.816;2023-07-20T07:48:42;20.50;69.60
64888;DHT22;51386;53.082;8.816;2023-07-20T07:51:09;20.60;69.00
64888;DHT22;51386;53.082;8.816;2023-07-20T07:53:36;20.70;68.60
64888;DHT22;51386;53.082;8.816;2023-07-20T07:56:06;20.70;67.10
64888;DHT22;51386;53.082;8.816;2023-07-20T07:58:34;20.80;67.30
64888;DHT22;51386;53.082;8.816;2023-07-20T08:01:01;20.80;67.30
64888;DHT22;51386;53.082;8.816;2023-07-20T08:03:28;20.90;66.80
64888;DHT22;51386;53.082;8.816;2023-07-20T08:05:57;20.90;67.00
64888;DHT22;51386;53.082;8.816;2023-07-20T08:08:28;21.00;65.90
64888;DHT22;51386;53.082;8.816;2023-07-20T08:11:04;21.10;64.90
64888;DHT22;51386;53.082;8.816;2023-07-20T08:13:38;21.20;64.90
64888;DHT22;51386;53.082;8.816;2023-07-20T08:16:05;21.40;64.70
64888;DHT22;51386;53.082;8.816;2023-07-20T08:18:39;21.60;63.20
64888;DHT22;51386;53.082;8.816;2023-07-20T08:21:10;21.60;62.50
64888;DHT22;51386;53.082;8.816;2023-07-20T08:23:37;21.70;62.40
64888;DHT22;51386;53.082;8.816;2023-07-20T08:26:04;21.70;61.30
64888;DHT22;51386;53.082;8.816;2023-07-20T08:28:31;21.90;62.30
64888;DHT22;51386;53.082;8.816;2023-07-20T08:30:58;22.40;62.10
64888;DHT22;51386;53.082;8.816;2023-07-20T08:33:30;23.10;60.90
64888;DHT22;51386;53.082;8.816;2023-07-20T08:36:06;24.00;59.60
64888;DHT22;51386;53.082;8.816;2023-07-20T08:38:39;25.00;56.50
64888;DHT22;51386;53.082;8.816;2023-07-20T08:41:06;25.90;52.10
64888;DHT22;51386;53.082;8.816;2023-07-20T08:43:35;26.70;49.90
64888;DHT22;51386;53.082;8.816;2023-07-20T08:46:04;27.40;47.50
64888;DHT22;51386;53.082;8.816;2023-07-20T08:48:32;28.10;45.90
64888;DHT22;51386;53.082;8.816;2023-07-20T08:51:00;28.60;42.00
64888;DHT22;51386;53.082;8.816;2023-07-20T08:53:32;29.00;41.50
64888;DHT22;51386;53.082;8.816;2023-07-20T08:56:02;29.40;39.10
64888;DHT22;51386;53.082;8.816;2023-07-20T08:58:31;29.70;38.30
64888;DHT22;51386;53.082;8.816;2023-07-20T09:01:00;30.10;39.00
64888;DHT22;51386;53.082;8.816;2023-07-20T09:03:29;30.50;38.10
64888;DHT22;51386;53.082;8.816;2023-07-20T09:05:56;31.00;37.20
64888;DHT22;51386;53.082;8.816;2023-07-20T09:08:23;31.50;36.20
64888;DHT22;51386;53.082;8.816;2023-07-20T09:10:50;31.80;34.00
64888;DHT22;51386;53.082;8.816;2023-07-20T09:13:18;32.20;33.60
64888;DHT22;51386;53.082;8.816;2023-07-20T09:15:47;32.50;32.60
64888;DHT22;51386;53.082;8.816;2023-07-20T09:18:27;32.80;32.80
64888;DHT22;51386;53.082;8.816;2023-07-20T09:20:58;32.90;30.20
64888;DHT22;51386;53.082;8.816;2023-07-20T09:23:31;33.10;30.80
64888;DHT22;51386;53.082;8.816;2023-07-20T09:25:58;33.30;30.40
64888;DHT22;51386;53.082;8.816;2023-07-20T09:28:27;33.50;30.80
64888;DHT22;51386;53.082;8.816;2023-07-20T09:30:55;33.70;29.60
64888;DHT22;51386;53.082;8.816;2023-07-20T09:33:24;33.80;28.60
64888;DHT22;51386;53.082;8.816;2023-07-20T09:35:54;33.90;28.90
64888;DHT22;51386;53.082;8.816;2023-07-20T09:38:49;34.00;28.60
64888;DHT22;51386;53.082;8.816;2023-07-20T09:41:20;34.20;28.20
64888;DHT22;51386;53.082;8.816;2023-07-20T09:43:52;34.30;27.70
64888;DHT22;51386;53.082;8.816;2023-07-20T09:46:21;34.30;27.70
64888;DHT22;51386;53.082;8.816;2023-07-20T09:48:52;34.30;27.80
64888;DHT22;51386;53.082;8.816;2023-07-20T09:51:23;34.30;27.80
64888;DHT22;51386;53.082;8.816;2023-07-20T09:53:52;34.40;27.90
64888;DHT22;51386;53.082;8.816;2023-07-20T09:56:22;34.40;28.30
64888;DHT22;51386;53.082;8.816;2023-07-20T09:58:52;34.20;28.20
64888;DHT22;51386;53.082;8.816;2023-07-20T10:01:21;33.70;28.50
64888;DHT22;51386;53.082;8.816;2023-07-20T10:03:53;33.20;29.00
64888;DHT22;51386;53.082;8.816;2023-07-20T10:06:25;33.00;29.50
64888;DHT22;51386;53.082;8.816;2023-07-20T10:09:00;32.90;29.50
64888;DHT22;51386;53.082;8.816;2023-07-20T10:11:32;32.60;29.40
64888;DHT22;51386;53.082;8.816;2023-07-20T10:14:05;32.10;29.60
64888;DHT22;51386;53.082;8.816;2023-07-20T10:16:35;31.50;31.00
64888;DHT22;51386;53.082;8.816;2023-07-20T10:19:07;30.70;33.50
64888;DHT22;51386;53.082;8.816;2023-07-20T10:21:48;29.90;36.20
64888;DHT22;51386;53.082;8.816;2023-07-20T10:24:23;29.00;37.50
64888;DHT22;51386;53.082;8.816;2023-07-20T10:26:51;28.30;38.30
64888;DHT22;51386;53.082;8.816;2023-07-20T10:29:21;27.60;39.40
64888;DHT22;51386;53.082;8.816;2023-07-20T10:31:48;27.10;41.30
64888;DHT22;51386;53.082;8.816;2023-07-20T10:34:19;26.60;43.10
64888;DHT22;51386;53.082;8.816;2023-07-20T10:36:46;26.20;43.70
64888;DHT22;51386;53.082;8.816;2023-07-20T10:39:22;25.90;43.90
64888;DHT22;51386;53.082;8.816;2023-07-20T10:42:00;25.80;44.40
64888;DHT22;51386;53.082;8.816;2023-07-20T10:44:30;25.70;44.20
64888;DHT22;51386;53.082;8.816;2023-07-20T10:47:00;25.70;44.60
64888;DHT22;51386;53.082;8.816;2023-07-20T10:49:33;25.80;44.40
64888;DHT22;51386;53.082;8.816;2023-07-20T10:52:04;25.90;44.70
64888;DHT22;51386;53.082;8.816;2023-07-20T10:54:48;26.00;44.50
64888;DHT22;51386;53.082;8.816;2023-07-20T10:57:24;26.10;45.00
64888;DHT22;51386;53.082;8.816;2023-07-20T11:00:08;26.10;44.80
64888;DHT22;51386;53.082;8.816;2023-07-20T11:02:48;26.00;44.50
64888;DHT22;51386;53.082;8.816;2023-07-20T11:05:37;26.00;45.40
64888;DHT22;51386;53.082;8.816;2023-07-20T11:08:09;25.90;45.70
64888;DHT22;51386;53.082;8.816;2023-07-20T11:10:37;25.80;45.40
64888;DHT22;51386;53.082;8.816;2023-07-20T11:13:21;25.70;45.50
64888;DHT22;51386;53.082;8.816;2023-07-20T11:16:04;25.50;46.20
64888;DHT22;51386;53.082;8.816;2023-07-20T11:18:34;25.50;47.30
64888;DHT22;51386;53.082;8.816;2023-07-20T11:21:08;25.40;47.00
64888;DHT22;51386;53.082;8.816;2023-07-20T11:23:38;25.30;46.40
64888;DHT22;51386;53.082;8.816;2023-07-20T11:26:05;25.20;47.00
64888;DHT22;51386;53.082;8.816;2023-07-20T11:28:34;25.20;46.50
64888;DHT22;51386;53.082;8.816;2023-07-20T11:31:01;25.10;47.10
64888;DHT22;51386;53.082;8.816;2023-07-20T11:33:29;25.10;47.70
64888;DHT22;51386;53.082;8.816;2023-07-20T11:35:56;25.00;47.70
64888;DHT22;51386;53.082;8.816;2023-07-20T11:38:24;25.00;48.30
64888;DHT22;51386;53.082;8.816;2023-07-20T11:40:51;24.90;48.10
64888;DHT22;51386;53.082;8.816;2023-07-20T11:43:18;24.90;48.30
64888;DHT22;51386;53.082;8.816;2023-07-20T11:45:47;24.90;48.10
64888;DHT22;51386;53.082;8.816;2023-07-20T11:48:15;24.90;48.40
64888;DHT22;51386;53.082;8.816;2023-07-20T11:50:45;25.00;48.60
64888;DHT22;51386;53.082;8.816;2023-07-20T11:53:12;25.00;48.20
64888;DHT22;51386;53.082;8.816;2023-07-20T11:55:41;25.10;48.70
64888;DHT22;51386;53.082;8.816;2023-07-20T11:58:09;25.20;48.70
64888;DHT22;51386;53.082;8.816;2023-07-20T12:00:38;25.20;48.20
64888;DHT22;51386;53.082;8.816;2023-07-20T12:03:07;25.30;48.00
64888;DHT22;51386;53.082;8.816;2023-07-20T12:05:34;25.30;48.30
64888;DHT22;51386;53.082;8.816;2023-07-20T12:08:23;25.30;48.20
64888;DHT22;51386;53.082;8.816;2023-07-20T12:10:50;25.10;49.80
64888;DHT22;51386;53.082;8.816;2023-07-20T12:13:17;25.10;51.40
64888;DHT22;51386;53.082;8.816;2023-07-20T12:15:44;25.00;51.40
64888;DHT22;51386;53.082;8.816;2023-07-20T12:18:11;24.90;52.80
64888;DHT22;51386;53.082;8.816;2023-07-20T12:20:38;24.70;52.30
64888;DHT22;51386;53.082;8.816;2023-07-20T12:23:09;24.60;53.90
64888;DHT22;51386;53.082;8.816;2023-07-20T12:25:40;24.50;54.90
64888;DHT22;51386;53.082;8.816;2023-07-20T12:28:09;24.40;54.30
64888;DHT22;51386;53.082;8.816;2023-07-20T12:30:37;24.30;53.80
64888;DHT22;51386;53.082;8.816;2023-07-20T12:33:05;24.30;53.80
64888;DHT22;51386;53.082;8.816;2023-07-20T12:35:32;24.20;54.40
64888;DHT22;51386;53.082;8.816;2023-07-20T12:38:00;24.20;55.20
64888;DHT22;51386;53.082;8.816;2023-07-20T12:40:27;24.30;54.90
64888;DHT22;51386;53.082;8.816;2023-07-20T12:42:57;24.30;53.70
64888;DHT22;51386;53.082;8.816;2023-07-20T12:45:24;24.30;53.40
64888;DHT22;51386;53.082;8.816;2023-07-20T12:47:51;24.30;52.40
64888;DHT22;51386;53.082;8.816;2023-07-20T12:50:19;24.30;51.20
64888;DHT22;51386;53.082;8.816;2023-07-20T12:52:46;24.30;51.60
64888;DHT22;51386;53.082;8.816;2023-07-20T12:55:13;24.30;51.90
64888;DHT22;51386;53.082;8.816;2023-07-20T12:57:40;24.30;51.00
64888;DHT22;51386;53.082;8.816;2023-07-20T13:00:11;24.30;51.20
64888;DHT22;51386;53.082;8.816;2023-07-20T13:02:39;24.40;50.90
64888;DHT22;51386;53.082;8.816;2023-07-20T13:05:06;24.50;50.50
64888;DHT22;51386;53.082;8.816;2023-07-20T13:07:35;24.60;48.70
64888;DHT22;51386;53.082;8.816;2023-07-20T13:10:07;24.70;48.90
64888;DHT22;51386;53.082;8.816;2023-07-20T13:12:36;24.70;47.90
64888;DHT22;51386;53.082;8.816;2023-07-20T13:15:05;24.70;47.90
64888;DHT22;51386;53.082;8.816;2023-07-20T13:17:36;24.60;47.50
64888;DHT22;51386;53.082;8.816;2023-07-20T13:20:07;24.60;47.50
64888;DHT22;51386;53.082;8.816;2023-07-20T13:22:37;24.50;47.80
64888;DHT22;51386;53.082;8.816;2023-07-20T13:25:04;24.50;47.40
64888;DHT22;51386;53.082;8.816;2023-07-20T13:27:33;24.50;46.60
64888;DHT22;51386;53.082;8.816;2023-07-20T13:30:00;24.50;46.70
64888;DHT22;51386;53.082;8.816;2023-07-20T13:32:30;24.50;46.90
64888;DHT22;51386;53.082;8.816;2023-07-20T13:35:02;24.60;47.30
64888;DHT22;51386;53.082;8.816;2023-07-20T13:37:29;24.70;46.60
64888;DHT22;51386;53.082;8.816;2023-07-20T13:39:56;24.90;46.30
64888;DHT22;51386;53.082;8.816;2023-07-20T13:42:23;25.10;45.50
64888;DHT22;51386;53.082;8.816;2023-07-20T13:44:50;25.30;45.90
64888;DHT22;51386;53.082;8.816;2023-07-20T13:47:17;25.50;45.20
64888;DHT22;51386;53.082;8.816;2023-07-20T13:49:47;25.60;45.10
64888;DHT22;51386;53.082;8.816;2023-07-20T13:52:17;25.70;43.80
64888;DHT22;51386;53.082;8.816;2023-07-20T13:54:47;25.80;43.60
64888;DHT22;51386;53.082;8.816;2023-07-20T13:57:19;25.80;43.90
64888;DHT22;51386;53.082;8.816;2023-07-20T13:59:47;25.90;44.60
64888;DHT22;51386;53.082;8.816;2023-07-20T14:02:15;25.90;45.00
64888;DHT22;51386;53.082;8.816;2023-07-20T14:04:45;26.00;46.20
64888;DHT22;51386;53.082;8.816;2023-07-20T14:07:12;26.10;46.20
64888;DHT22;51386;53.082;8.816;2023-07-20T14:09:43;26.00;45.50
64888;DHT22;51386;53.082;8.816;2023-07-20T14:12:13;25.80;44.60
64888;DHT22;51386;53.082;8.816;2023-07-20T14:14:44;25.60;43.50
64888;DHT22;51386;53.082;8.816;2023-07-20T14:17:11;25.50;44.20
64888;DHT22;51386;53.082;8.816;2023-07-20T14:19:39;25.40;44.50
64888;DHT22;51386;53.082;8.816;2023-07-20T14:22:09;25.30;46.30
64888;DHT22;51386;53.082;8.816;2023-07-20T14:24:38;25.30;46.90
64888;DHT22;51386;53.082;8.816;2023-07-20T14:27:07;25.10;46.30
64888;DHT22;51386;53.082;8.816;2023-07-20T14:29:34;25.00;47.50
64888;DHT22;51386;53.082;8.816;2023-07-20T14:32:03;24.90;48.20
64888;DHT22;51386;53.082;8.816;2023-07-20T14:34:33;24.80;48.70
64888;DHT22;51386;53.082;8.816;2023-07-20T14:37:03;24.60;48.50
64888;DHT22;51386;53.082;8.816;2023-07-20T14:39:31;24.50;48.60
64888;DHT22;51386;53.082;8.816;2023-07-20T14:41:58;24.40;48.50
64888;DHT22;51386;53.082;8.816;2023-07-20T14:44:27;24.40;48.20
64888;DHT22;51386;53.082;8.816;2023-07-20T14:46:54;24.40;47.60
64888;DHT22;51386;53.082;8.816;2023-07-20T14:49:39;24.50;48.10
64888;DHT22;51386;53.082;8.816;2023-07-20T14:52:07;24.50;47.90
64888;DHT22;51386;53.082;8.816;2023-07-20T14:54:37;24.50;48.40
64888;DHT22;51386;53.082;8.816;2023-07-20T14:57:05;24.50;48.40
64888;DHT22;51386;53.082;8.816;2023-07-20T14:59:42;24.50;49.20
64888;DHT22;51386;53.082;8.816;2023-07-20T15:02:11;24.50;48.70
64888;DHT22;51386;53.082;8.816;2023-07-20T15:04:45;24.60;49.00
64888;DHT22;51386;53.082;8.816;2023-07-20T15:07:13;24.70;49.60
64888;DHT22;51386;53.082;8.816;2023-07-20T15:09:40;24.80;49.20
64888;DHT22;51386;53.082;8.816;2023-07-20T15:12:12;24.80;49.10
64888;DHT22;51386;53.082;8.816;2023-07-20T15:14:40;24.90;49.10
64888;DHT22;51386;53.082;8.816;2023-07-20T15:17:10;25.10;49.20
64888;DHT22;51386;53.082;8.816;2023-07-20T15:19:38;25.40;48.90
64888;DHT22;51386;53.082;8.816;2023-07-20T15:22:05;25.70;49.00
64888;DHT22;51386;53.082;8.816;2023-07-20T15:24:34;25.90;48.40
64888;DHT22;51386;53.082;8.816;2023-07-20T15:27:03;26.00;47.80
64888;DHT22;51386;53.082;8.816;2023-07-20T15:29:31;26.00;47.40
64888;DHT22;51386;53.082;8.816;2023-07-20T15:32:01;25.90;47.00
64888;DHT22;51386;53.082;8.816;2023-07-20T15:34:30;25.80;47.50
64888;DHT22;51386;53.082;8.816;2023-07-20T15:36:57;25.70;47.10
64888;DHT22;51386;53.082;8.816;2023-07-20T15:39:24;25.50;47.30
64888;DHT22;51386;53.082;8.816;2023-07-20T15:41:53;25.40;47.40